sensor_id;sensor_type;location;lat;lon;timestamp;P1;durP1;ratioP1;P2;durP2;ratioP2
10088;SDS011;51898;49.864;8.550;2024-02-21T00:02:28;14.00;;;6.97;;
10088;SDS011;51898;49.864;8.550;2024-02-21T00:05:30;17.57;;;6.70;;
10088;SDS011;51898;49.864;8.550;2024-02-21T00:08:32;22.70;;;7.90;;
10088;SDS011;51898;49.864;8.550;2024-02-21T00:11:34;18.00;;;7.57;;
10088;SDS011;51898;49.864;8.550;2024-02-21T00:14:36;17.77;;;7.40;;
10088;SDS011;51898;49.864;8.550;2024-02-21T00:17:37;16.63;;;7.30;;
10088;SDS011;51898;49.864;8.550;2024-02-21T00:20:39;12.90;;;7.77;;
10088;SDS011;51898;49.864;8.550;2024-02-21T00:23:41;13.77;;;7.53;;
10088;SDS011;51898;49.864;8.550;2024-02-21T00:26:42;18.30;;;7.17;;
10088;SDS011;51898;49.864;8.550;2024-02-21T00:29:44;21.07;;;7.83;;
10088;SDS011;51898;49.864;8.550;2024-02-21T00:32:46;14.70;;;7.80;;
10088;SDS011;51898;49.864;8.550;2024-02-21T00:35:48;15.80;;;8.33;;
10088;SDS011;51898;49.864;8.550;2024-02-21T00:38:50;26.67;;;8.60;;
10088;SDS011;51898;49.864;8.550;2024-02-21T00:41:52;22.03;;;8.53;;
10088;SDS011;51898;49.864;8.550;2024-02-21T00:44:53;17.27;;;8.30;;
10088;SDS011;51898;49.864;8.550;2024-02-21T00:47:55;19.40;;;8.13;;
10088;SDS011;51898;49.864;8.550;2024-02-21T00:50:57;22.73;;;7.90;;
10088;SDS011;51898;49.864;8.550;2024-02-21T00:53:59;13.47;;;7.17;;
10088;SDS011;51898;49.864;8.550;2024-02-21T00:57:02;12.50;;;6.90;;
10088;SDS011;51898;49.864;8.550;2024-02-21T01:00:04;22.40;;;7.53;;
10088;SDS011;51898;49.864;8.550;2024-02-21T01:03:06;15.87;;;7.10;;
10088;SDS011;51898;49.864;8.550;2024-02-21T01:06:08;17.13;;;7.43;;
10088;SDS011;51898;49.864;8.550;2024-02-21T01:09:12;15.90;;;6.50;;
10088;SDS011;51898;49.864;8.550;2024-02-21T01:12:15;21.30;;;7.93;;
10088;SDS011;51898;49.864;8.550;2024-02-21T01:15:17;18.03;;;7.77;;
10088;SDS011;51898;49.864;8.550;2024-02-21T01:18:19;11.67;;;7.57;;
10088;SDS011;51898;49.864;8.550;2024-02-21T01:21:21;16.30;;;8.03;;
10088;SDS011;51898;49.864;8.550;2024-02-21T01:24:23;17.60;;;7.33;;
10088;SDS011;51898;49.864;8.550;2024-02-21T01:27:25;14.97;;;8.27;;
10088;SDS011;51898;49.864;8.550;2024-02-21T01:30:27;19.27;;;8.03;;
10088;SDS011;51898;49.864;8.550;2024-02-21T01:33:28;16.43;;;7.40;;
10088;SDS011;51898;49.864;8.550;2024-02-21T01:36:35;14.23;;;7.57;;
10088;SDS011;51898;49.864;8.550;2024-02-21T01:39:37;18.30;;;8.73;;
10088;SDS011;51898;49.864;8.550;2024-02-21T01:42:39;18.53;;;8.37;;
10088;SDS011;51898;49.864;8.550;2024-02-21T01:45:42;16.20;;;8.10;;
10088;SDS011;51898;49.864;8.550;2024-02-21T01:48:43;21.80;;;8.00;;
10088;SDS011;51898;49.864;8.550;2024-02-21T01:51:47;17.80;;;7.93;;
10088;SDS011;51898;49.864;8.550;2024-02-21T01:54:49;19.30;;;8.63;;
10088;SDS011;51898;49.864;8.550;2024-02-21T01:57:51;18.23;;;8.50;;
10088;SDS011;51898;49.864;8.550;2024-02-21T02:00:53;18.97;;;8.17;;
10088;SDS011;51898;49.864;8.550;2024-02-21T02:03:57;19.30;;;7.90;;
10088;SDS011;51898;49.864;8.550;2024-02-21T02:07:02;18.63;;;8.57;;
10088;SDS011;51898;49.864;8.550;2024-02-21T02:10:05;22.10;;;8.83;;
10088;SDS011;51898;49.864;8.550;2024-02-21T02:13:07;19.37;;;8.77;;
10088;SDS011;51898;49.864;8.550;2024-02-21T02:16:09;14.97;;;7.53;;
10088;SDS011;51898;49.864;8.550;2024-02-21T02:19:11;16.93;;;7.70;;
10088;SDS011;51898;49.864;8.550;2024-02-21T02:22:16;23.23;;;8.23;;
10088;SDS011;51898;49.864;8.550;2024-02-21T02:25:26;20.00;;;8.70;;
10088;SDS011;51898;49.864;8.550;2024-02-21T02:28:28;17.60;;;8.27;;
10088;SDS011;51898;49.864;8.550;2024-02-21T02:31:30;15.27;;;8.50;;
10088;SDS011;51898;49.864;8.550;2024-02-21T02:34:32;14.77;;;8.13;;
10088;SDS011;51898;49.864;8.550;2024-02-21T02:37:34;17.43;;;7.63;;
10088;SDS011;51898;49.864;8.550;2024-02-21T02:40:36;20.30;;;9.10;;
10088;SDS011;51898;49.864;8.550;2024-02-21T02:43:39;21.47;;;8.63;;
10088;SDS011;51898;49.864;8.550;2024-02-21T02:46:40;15.70;;;8.73;;
10088;SDS011;51898;49.864;8.550;2024-02-21T02:49:42;16.83;;;9.10;;
10088;SDS011;51898;49.864;8.550;2024-02-21T02:52:45;16.87;;;9.20;;
10088;SDS011;51898;49.864;8.550;2024-02-21T02:55:47;13.47;;;8.57;;
10088;SDS011;51898;49.864;8.550;2024-02-21T02:58:49;14.30;;;7.73;;
10088;SDS011;51898;49.864;8.550;2024-02-21T03:01:50;18.43;;;9.50;;
10088;SDS011;51898;49.864;8.550;2024-02-21T03:04:52;23.20;;;8.10;;
10088;SDS011;51898;49.864;8.550;2024-02-21T03:07:54;22.03;;;9.07;;
10088;SDS011;51898;49.864;8.550;2024-02-21T03:10:56;16.73;;;8.40;;
10088;SDS011;51898;49.864;8.550;2024-02-21T03:13:58;16.93;;;8.27;;
10088;SDS011;51898;49.864;8.550;2024-02-21T03:17:00;17.40;;;8.30;;
10088;SDS011;51898;49.864;8.550;2024-02-21T03:20:02;22.33;;;8.93;;
10088;SDS011;51898;49.864;8.550;2024-02-21T03:23:10;19.20;;;9.33;;
10088;SDS011;51898;49.864;8.550;2024-02-21T03:26:12;16.23;;;8.27;;
10088;SDS011;51898;49.864;8.550;2024-02-21T03:29:14;21.40;;;8.00;;
10088;SDS011;51898;49.864;8.550;2024-02-21T03:32:19;20.83;;;7.90;;
10088;SDS011;51898;49.864;8.550;2024-02-21T03:35:20;15.20;;;8.23;;
10088;SDS011;51898;49.864;8.550;2024-02-21T03:38:22;19.53;;;8.77;;
10088;SDS011;51898;49.864;8.550;2024-02-21T03:41:24;20.03;;;8.07;;
10088;SDS011;51898;49.864;8.550;2024-02-21T03:44:25;20.07;;;9.53;;
10088;SDS011;51898;49.864;8.550;2024-02-21T03:47:28;20.60;;;8.20;;
10088;SDS011;51898;49.864;8.550;2024-02-21T03:50:29;15.53;;;7.63;;
10088;SDS011;51898;49.864;8.550;2024-02-21T03:53:31;15.33;;;7.60;;
10088;SDS011;51898;49.864;8.550;2024-02-21T03:56:36;15.30;;;8.13;;
10088;SDS011;51898;49.864;8.550;2024-02-21T03:59:39;15.70;;;7.70;;
10088;SDS011;51898;49.864;8.550;2024-02-21T04:02:45;25.10;;;7.90;;
10088;SDS011;51898;49.864;8.550;2024-02-21T04:05:46;20.23;;;8.97;;
10088;SDS011;51898;49.864;8.550;2024-02-21T04:08:48;18.17;;;7.70;;
10088;SDS011;51898;49.864;8.550;2024-02-21T04:11:50;16.40;;;8.17;;
10088;SDS011;51898;49.864;8.550;2024-02-21T04:14:52;13.53;;;7.50;;
10088;SDS011;51898;49.864;8.550;2024-02-21T04:17:53;16.33;;;8.20;;
10088;SDS011;51898;49.864;8.550;2024-02-21T04:20:55;16.70;;;8.37;;
10088;SDS011;51898;49.864;8.550;2024-02-21T04:23:57;21.63;;;8.20;;
10088;SDS011;51898;49.864;8.550;2024-02-21T04:26:59;14.67;;;7.17;;
10088;SDS011;51898;49.864;8.550;2024-02-21T04:30:00;15.63;;;7.70;;
10088;SDS011;51898;49.864;8.550;2024-02-21T04:33:02;19.50;;;7.53;;
10088;SDS011;51898;49.864;8.550;2024-02-21T04:36:04;21.30;;;7.90;;
10088;SDS011;51898;49.864;8.550;2024-02-21T04:39:06;20.40;;;8.20;;
10088;SDS011;51898;49.864;8.550;2024-02-21T04:42:08;14.97;;;7.50;;
10088;SDS011;51898;49.864;8.550;2024-02-21T04:45:09;12.23;;;7.50;;
10088;SDS011;51898;49.864;8.550;2024-02-21T04:48:11;16.60;;;7.93;;
10088;SDS011;51898;49.864;8.550;2024-02-21T04:51:13;16.97;;;7.60;;
10088;SDS011;51898;49.864;8.550;2024-02-21T04:54:15;13.30;;;7.93;;
10088;SDS011;51898;49.864;8.550;2024-02-21T04:57:17;13.80;;;7.43;;
10088;SDS011;51898;49.864;8.550;2024-02-21T05:00:18;15.63;;;8.30;;
10088;SDS011;51898;49.864;8.550;2024-02-21T05:03:21;13.33;;;7.60;;
10088;SDS011;51898;49.864;8.550;2024-02-21T05:06:23;13.50;;;7.70;;
10088;SDS011;51898;49.864;8.550;2024-02-21T05:09:24;17.23;;;7.80;;
10088;SDS011;51898;49.864;8.550;2024-02-21T05:12:26;15.00;;;7.80;;
10088;SDS011;51898;49.864;8.550;2024-02-21T05:15:28;19.27;;;8.70;;
10088;SDS011;51898;49.864;8.550;2024-02-21T05:18:29;24.63;;;8.53;;
10088;SDS011;51898;49.864;8.550;2024-02-21T05:21:31;16.93;;;8.07;;
10088;SDS011;51898;49.864;8.550;2024-02-21T05:24:33;25.50;;;7.67;;
10088;SDS011;51898;49.864;8.550;2024-02-21T05:27:34;19.03;;;7.90;;
10088;SDS011;51898;49.864;8.550;2024-02-21T05:30:37;17.70;;;8.27;;
10088;SDS011;51898;49.864;8.550;2024-02-21T05:33:39;17.07;;;8.23;;
10088;SDS011;51898;49.864;8.550;2024-02-21T05:36:41;17.90;;;8.27;;
10088;SDS011;51898;49.864;8.550;2024-02-21T05:39:43;18.90;;;8.20;;
10088;SDS011;51898;49.864;8.550;2024-02-21T05:42:45;17.70;;;8.10;;
10088;SDS011;51898;49.864;8.550;2024-02-21T05:45:47;18.30;;;8.47;;
10088;SDS011;51898;49.864;8.550;2024-02-21T05:48:49;14.13;;;7.37;;
10088;SDS011;51898;49.864;8.550;2024-02-21T05:51:51;14.30;;;6.77;;
10088;SDS011;51898;49.864;8.550;2024-02-21T05:54:53;21.10;;;7.03;;
10088;SDS011;51898;49.864;8.550;2024-02-21T05:57:55;13.40;;;7.13;;
10088;SDS011;51898;49.864;8.550;2024-02-21T06:00:57;11.30;;;6.20;;
10088;SDS011;51898;49.864;8.550;2024-02-21T06:03:58;15.10;;;7.80;;
10088;SDS011;51898;49.864;8.550;2024-02-21T06:07:01;14.90;;;6.70;;
10088;SDS011;51898;49.864;8.550;2024-02-21T06:10:03;14.87;;;7.50;;
10088;SDS011;51898;49.864;8.550;2024-02-21T06:13:05;17.40;;;7.13;;
10088;SDS011;51898;49.864;8.550;2024-02-21T06:16:07;14.13;;;7.07;;
10088;SDS011;51898;49.864;8.550;2024-02-21T06:19:08;14.00;;;7.17;;
10088;SDS011;51898;49.864;8.550;2024-02-21T06:22:11;13.60;;;7.70;;
10088;SDS011;51898;49.864;8.550;2024-02-21T06:25:13;16.33;;;7.10;;
10088;SDS011;51898;49.864;8.550;2024-02-21T06:28:14;20.97;;;8.03;;
10088;SDS011;51898;49.864;8.550;2024-02-21T06:31:16;32.90;;;20.27;;
10088;SDS011;51898;49.864;8.550;2024-02-21T06:34:18;13.40;;;7.23;;
10088;SDS011;51898;49.864;8.550;2024-02-21T06:37:20;15.13;;;7.63;;
10088;SDS011;51898;49.864;8.550;2024-02-21T06:40:22;18.40;;;6.93;;
10088;SDS011;51898;49.864;8.550;2024-02-21T06:43:25;14.97;;;6.77;;
10088;SDS011;51898;49.864;8.550;2024-02-21T06:46:27;16.50;;;7.50;;
10088;SDS011;51898;49.864;8.550;2024-02-21T06:49:34;16.07;;;9.20;;
10088;SDS011;51898;49.864;8.550;2024-02-21T06:52:38;15.23;;;7.07;;
10088;SDS011;51898;49.864;8.550;2024-02-21T06:55:40;12.73;;;6.90;;
10088;SDS011;51898;49.864;8.550;2024-02-21T06:58:41;16.80;;;7.53;;
10088;SDS011;51898;49.864;8.550;2024-02-21T07:01:51;20.33;;;7.90;;
10088;SDS011;51898;49.864;8.550;2024-02-21T07:04:54;14.07;;;6.80;;
10088;SDS011;51898;49.864;8.550;2024-02-21T07:07:56;13.43;;;7.87;;
10088;SDS011;51898;49.864;8.550;2024-02-21T07:10:58;12.33;;;7.03;;
10088;SDS011;51898;49.864;8.550;2024-02-21T07:14:00;17.83;;;7.97;;
10088;SDS011;51898;49.864;8.550;2024-02-21T07:17:02;15.87;;;7.43;;
10088;SDS011;51898;49.864;8.550;2024-02-21T07:20:04;13.03;;;7.77;;
10088;SDS011;51898;49.864;8.550;2024-02-21T07:23:07;16.53;;;7.30;;
10088;SDS011;51898;49.864;8.550;2024-02-21T07:26:10;18.17;;;7.33;;
10088;SDS011;51898;49.864;8.550;2024-02-21T07:29:11;20.77;;;7.13;;
10088;SDS011;51898;49.864;8.550;2024-02-21T07:32:13;15.87;;;7.27;;
10088;SDS011;51898;49.864;8.550;2024-02-21T07:35:15;19.57;;;8.70;;
10088;SDS011;51898;49.864;8.550;2024-02-21T07:38:17;18.73;;;7.50;;
10088;SDS011;51898;49.864;8.550;2024-02-21T07:41:19;14.73;;;6.40;;
10088;SDS011;51898;49.864;8.550;2024-02-21T07:44:21;10.23;;;6.30;;
10088;SDS011;51898;49.864;8.550;2024-02-21T07:47:23;13.60;;;7.83;;
10088;SDS011;51898;49.864;8.550;2024-02-21T07:50:25;15.93;;;9.87;;
10088;SDS011;51898;49.864;8.550;2024-02-21T07:53:27;17.50;;;7.50;;
10088;SDS011;51898;49.864;8.550;2024-02-21T07:56:28;10.20;;;6.43;;
10088;SDS011;51898;49.864;8.550;2024-02-21T07:59:30;11.47;;;6.73;;
10088;SDS011;51898;49.864;8.550;2024-02-21T08:02:32;13.63;;;6.53;;
10088;SDS011;51898;49.864;8.550;2024-02-21T08:05:34;12.87;;;7.00;;
10088;SDS011;51898;49.864;8.550;2024-02-21T08:08:36;12.80;;;7.43;;
10088;SDS011;51898;49.864;8.550;2024-02-21T08:11:38;16.27;;;6.57;;
10088;SDS011;51898;49.864;8.550;2024-02-21T08:14:39;13.90;;;6.70;;
10088;SDS011;51898;49.864;8.550;2024-02-21T08:17:41;11.90;;;5.87;;
10088;SDS011;51898;49.864;8.550;2024-02-21T08:20:43;10.67;;;6.07;;
10088;SDS011;51898;49.864;8.550;2024-02-21T08:23:44;11.77;;;6.70;;
10088;SDS011;51898;49.864;8.550;2024-02-21T08:26:46;12.87;;;6.43;;
10088;SDS011;51898;49.864;8.550;2024-02-21T08:29:48;11.37;;;6.30;;
10088;SDS011;51898;49.864;8.550;2024-02-21T08:32:49;13.13;;;6.50;;
10088;SDS011;51898;49.864;8.550;2024-02-21T08:35:51;14.00;;;6.20;;
10088;SDS011;51898;49.864;8.550;2024-02-21T08:38:53;19.20;;;6.90;;
10088;SDS011;51898;49.864;8.550;2024-02-21T08:41:55;13.90;;;5.57;;
10088;SDS011;51898;49.864;8.550;2024-02-21T08:44:58;13.33;;;5.83;;
10088;SDS011;51898;49.864;8.550;2024-02-21T08:48:00;11.37;;;6.47;;
10088;SDS011;51898;49.864;8.550;2024-02-21T08:51:02;12.60;;;6.00;;
10088;SDS011;51898;49.864;8.550;2024-02-21T08:54:03;15.50;;;5.87;;
10088;SDS011;51898;49.864;8.550;2024-02-21T08:57:05;11.47;;;6.30;;
10088;SDS011;51898;49.864;8.550;2024-02-21T09:00:07;16.20;;;6.70;;
10088;SDS011;51898;49.864;8.550;2024-02-21T09:03:14;11.20;;;5.80;;
10088;SDS011;51898;49.864;8.550;2024-02-21T09:06:16;9.83;;;5.40;;
10088;SDS011;51898;49.864;8.550;2024-02-21T09:09:17;13.20;;;5.90;;
10088;SDS011;51898;49.864;8.550;2024-02-21T09:12:19;15.80;;;6.07;;
10088;SDS011;51898;49.864;8.550;2024-02-21T09:15:21;9.10;;;5.47;;
10088;SDS011;51898;49.864;8.550;2024-02-21T09:18:22;17.70;;;5.60;;
10088;SDS011;51898;49.864;8.550;2024-02-21T09:21:24;9.40;;;5.73;;
10088;SDS011;51898;49.864;8.550;2024-02-21T09:24:26;13.27;;;5.90;;
10088;SDS011;51898;49.864;8.550;2024-02-21T09:27:27;11.70;;;5.07;;
10088;SDS011;51898;49.864;8.550;2024-02-21T09:30:29;14.27;;;6.40;;
10088;SDS011;51898;49.864;8.550;2024-02-21T09:33:31;10.07;;;5.13;;
10088;SDS011;51898;49.864;8.550;2024-02-21T09:36:33;13.30;;;5.87;;
10088;SDS011;51898;49.864;8.550;2024-02-21T09:39:35;12.40;;;5.97;;
10088;SDS011;51898;49.864;8.550;2024-02-21T09:42:37;14.13;;;6.47;;
10088;SDS011;51898;49.864;8.550;2024-02-21T09:45:40;12.17;;;6.13;;
10088;SDS011;51898;49.864;8.550;2024-02-21T09:49:31;12.83;;;6.10;;
10088;SDS011;51898;49.864;8.550;2024-02-21T09:52:23;11.87;;;5.87;;
10088;SDS011;51898;49.864;8.550;2024-02-21T09:55:26;9.20;;;5.90;;
10088;SDS011;51898;49.864;8.550;2024-02-21T09:58:30;16.07;;;7.10;;
10088;SDS011;51898;49.864;8.550;2024-02-21T10:01:33;13.43;;;6.67;;
10088;SDS011;51898;49.864;8.550;2024-02-21T10:04:36;13.70;;;6.27;;
10088;SDS011;51898;49.864;8.550;2024-02-21T10:07:38;18.90;;;6.37;;
10088;SDS011;51898;49.864;8.550;2024-02-21T10:10:44;13.83;;;5.90;;
10088;SDS011;51898;49.864;8.550;2024-02-21T10:13:47;13.13;;;5.90;;
10088;SDS011;51898;49.864;8.550;2024-02-21T10:16:56;14.17;;;5.70;;
10088;SDS011;51898;49.864;8.550;2024-02-21T10:20:07;13.30;;;6.20;;
10088;SDS011;51898;49.864;8.550;2024-02-21T10:23:12;10.13;;;6.40;;
10088;SDS011;51898;49.864;8.550;2024-02-21T10:26:15;10.90;;;6.40;;
10088;SDS011;51898;49.864;8.550;2024-02-21T10:29:17;15.60;;;6.43;;
10088;SDS011;51898;49.864;8.550;2024-02-21T10:32:19;11.13;;;6.53;;
10088;SDS011;51898;49.864;8.550;2024-02-21T10:35:27;13.37;;;6.07;;
10088;SDS011;51898;49.864;8.550;2024-02-21T10:38:31;12.10;;;6.27;;
10088;SDS011;51898;49.864;8.550;2024-02-21T10:41:35;13.53;;;6.07;;
10088;SDS011;51898;49.864;8.550;2024-02-21T10:44:38;12.90;;;6.00;;
10088;SDS011;51898;49.864;8.550;2024-02-21T10:47:42;13.53;;;5.63;;
10088;SDS011;51898;49.864;8.550;2024-02-21T10:51:02;15.30;;;5.93;;
10088;SDS011;51898;49.864;8.550;2024-02-21T10:57:35;9.93;;;4.70;;
10088;SDS011;51898;49.864;8.550;2024-02-21T11:00:39;8.23;;;4.47;;
10088;SDS011;51898;49.864;8.550;2024-02-21T11:03:41;12.10;;;5.47;;
10088;SDS011;51898;49.864;8.550;2024-02-21T11:06:45;11.37;;;5.07;;
10088;SDS011;51898;49.864;8.550;2024-02-21T11:09:51;13.77;;;4.93;;
10088;SDS011;51898;49.864;8.550;2024-02-21T11:13:07;9.83;;;5.03;;
10088;SDS011;51898;49.864;8.550;2024-02-21T11:16:10;11.37;;;4.57;;
10088;SDS011;51898;49.864;8.550;2024-02-21T11:19:22;15.00;;;4.67;;
10088;SDS011;51898;49.864;8.550;2024-02-21T11:22:26;9.93;;;5.37;;
10088;SDS011;51898;49.864;8.550;2024-02-21T11:25:32;10.60;;;5.30;;
10088;SDS011;51898;49.864;8.550;2024-02-21T11:28:36;9.03;;;4.63;;
10088;SDS011;51898;49.864;8.550;2024-02-21T11:31:41;8.73;;;4.60;;
10088;SDS011;51898;49.864;8.550;2024-02-21T11:34:54;9.37;;;4.10;;
10088;SDS011;51898;49.864;8.550;2024-02-21T11:37:56;12.53;;;5.40;;
10088;SDS011;51898;49.864;8.550;2024-02-21T11:41:08;11.20;;;4.77;;
10088;SDS011;51898;49.864;8.550;2024-02-21T11:44:13;7.63;;;3.83;;
10088;SDS011;51898;49.864;8.550;2024-02-21T11:47:14;11.10;;;4.40;;
10088;SDS011;51898;49.864;8.550;2024-02-21T11:50:16;11.27;;;4.13;;
10088;SDS011;51898;49.864;8.550;2024-02-21T11:53:22;9.93;;;4.90;;
10088;SDS011;51898;49.864;8.550;2024-02-21T11:56:24;10.60;;;4.57;;
10088;SDS011;51898;49.864;8.550;2024-02-21T11:59:29;5.50;;;3.60;;
10088;SDS011;51898;49.864;8.550;2024-02-21T12:02:32;9.37;;;4.23;;
10088;SDS011;51898;49.864;8.550;2024-02-21T12:05:34;10.17;;;3.90;;
10088;SDS011;51898;49.864;8.550;2024-02-21T12:08:43;9.00;;;4.10;;
10088;SDS011;51898;49.864;8.550;2024-02-21T12:11:45;10.87;;;5.00;;
10088;SDS011;51898;49.864;8.550;2024-02-21T12:14:53;11.43;;;4.10;;
10088;SDS011;51898;49.864;8.550;2024-02-21T12:17:57;14.20;;;4.60;;
10088;SDS011;51898;49.864;8.550;2024-02-21T12:21:01;9.60;;;4.10;;
10088;SDS011;51898;49.864;8.550;2024-02-21T12:24:21;10.80;;;3.83;;
10088;SDS011;51898;49.864;8.550;2024-02-21T12:27:25;9.50;;;4.47;;
10088;SDS011;51898;49.864;8.550;2024-02-21T12:30:27;7.40;;;3.67;;
10088;SDS011;51898;49.864;8.550;2024-02-21T12:33:30;10.10;;;4.27;;
10088;SDS011;51898;49.864;8.550;2024-02-21T12:36:32;7.70;;;4.37;;
10088;SDS011;51898;49.864;8.550;2024-02-21T12:39:34;7.37;;;3.93;;
10088;SDS011;51898;49.864;8.550;2024-02-21T12:42:37;10.10;;;4.70;;
10088;SDS011;51898;49.864;8.550;2024-02-21T12:45:39;10.30;;;3.77;;
10088;SDS011;51898;49.864;8.550;2024-02-21T12:48:41;6.80;;;3.00;;
10088;SDS011;51898;49.864;8.550;2024-02-21T12:51:43;7.27;;;3.60;;
10088;SDS011;51898;49.864;8.550;2024-02-21T12:54:47;10.60;;;3.70;;
10088;SDS011;51898;49.864;8.550;2024-02-21T12:57:49;7.23;;;3.30;;
10088;SDS011;51898;49.864;8.550;2024-02-21T13:00:51;7.77;;;3.20;;
10088;SDS011;51898;49.864;8.550;2024-02-21T13:03:53;7.20;;;3.63;;
10088;SDS011;51898;49.864;8.550;2024-02-21T13:06:55;8.70;;;4.10;;
10088;SDS011;51898;49.864;8.550;2024-02-21T13:09:57;8.43;;;3.80;;
10088;SDS011;51898;49.864;8.550;2024-02-21T13:13:00;11.43;;;4.00;;
10088;SDS011;51898;49.864;8.550;2024-02-21T13:16:02;9.07;;;4.10;;
10088;SDS011;51898;49.864;8.550;2024-02-21T13:19:05;7.87;;;5.00;;
10088;SDS011;51898;49.864;8.550;2024-02-21T13:22:07;9.70;;;4.93;;
10088;SDS011;51898;49.864;8.550;2024-02-21T13:25:10;8.57;;;3.30;;
10088;SDS011;51898;49.864;8.550;2024-02-21T13:28:11;5.30;;;3.40;;
10088;SDS011;51898;49.864;8.550;2024-02-21T13:31:14;7.60;;;3.80;;
10088;SDS011;51898;49.864;8.550;2024-02-21T13:34:17;8.63;;;3.77;;
10088;SDS011;51898;49.864;8.550;2024-02-21T13:37:20;11.13;;;3.20;;
10088;SDS011;51898;49.864;8.550;2024-02-21T13:40:22;8.73;;;3.45;;
10088;SDS011;51898;49.864;8.550;2024-02-21T13:43:24;9.33;;;3.70;;
10088;SDS011;51898;49.864;8.550;2024-02-21T13:46:26;7.17;;;2.97;;
10088;SDS011;51898;49.864;8.550;2024-02-21T13:49:28;9.50;;;3.50;;
10088;SDS011;51898;49.864;8.550;2024-02-21T13:52:31;7.50;;;3.73;;
10088;SDS011;51898;49.864;8.550;2024-02-21T13:55:34;6.97;;;3.40;;
10088;SDS011;51898;49.864;8.550;2024-02-21T13:58:36;9.17;;;3.33;;
10088;SDS011;51898;49.864;8.550;2024-02-21T14:01:38;9.37;;;3.10;;
10088;SDS011;51898;49.864;8.550;2024-02-21T14:04:40;11.00;;;3.10;;
10088;SDS011;51898;49.864;8.550;2024-02-21T14:07:42;7.17;;;3.07;;
10088;SDS011;51898;49.864;8.550;2024-02-21T14:10:44;14.10;;;3.77;;
10088;SDS011;51898;49.864;8.550;2024-02-21T14:13:46;6.67;;;3.10;;
10088;SDS011;51898;49.864;8.550;2024-02-21T14:16:48;4.63;;;2.73;;
10088;SDS011;51898;49.864;8.550;2024-02-21T14:19:49;7.10;;;3.40;;
10088;SDS011;51898;49.864;8.550;2024-02-21T14:22:52;4.87;;;2.80;;
10088;SDS011;51898;49.864;8.550;2024-02-21T14:25:54;13.53;;;4.03;;
10088;SDS011;51898;49.864;8.550;2024-02-21T14:28:56;6.63;;;3.07;;
10088;SDS011;51898;49.864;8.550;2024-02-21T14:31:58;11.50;;;3.63;;
10088;SDS011;51898;49.864;8.550;2024-02-21T14:35:00;21.93;;;4.30;;
10088;SDS011;51898;49.864;8.550;2024-02-21T14:38:06;9.73;;;4.13;;
10088;SDS011;51898;49.864;8.550;2024-02-21T14:41:09;7.00;;;4.20;;
10088;SDS011;51898;49.864;8.550;2024-02-21T14:44:13;5.20;;;3.10;;
10088;SDS011;51898;49.864;8.550;2024-02-21T14:47:15;8.30;;;4.57;;
10088;SDS011;51898;49.864;8.550;2024-02-21T14:50:17;8.40;;;3.20;;
10088;SDS011;51898;49.864;8.550;2024-02-21T14:53:19;4.60;;;3.30;;
10088;SDS011;51898;49.864;8.550;2024-02-21T14:56:21;6.57;;;3.93;;
10088;SDS011;51898;49.864;8.550;2024-02-21T14:59:24;9.50;;;3.10;;
10088;SDS011;51898;49.864;8.550;2024-02-21T15:02:34;5.90;;;3.33;;
10088;SDS011;51898;49.864;8.550;2024-02-21T15:05:36;10.67;;;4.23;;
10088;SDS011;51898;49.864;8.550;2024-02-21T15:08:40;8.73;;;3.30;;
10088;SDS011;51898;49.864;8.550;2024-02-21T15:11:42;11.73;;;3.20;;
10088;SDS011;51898;49.864;8.550;2024-02-21T15:14:44;6.50;;;3.70;;
10088;SDS011;51898;49.864;8.550;2024-02-21T15:17:46;7.63;;;4.10;;
10088;SDS011;51898;49.864;8.550;2024-02-21T15:20:48;11.93;;;3.60;;
10088;SDS011;51898;49.864;8.550;2024-02-21T15:23:49;7.50;;;3.40;;
10088;SDS011;51898;49.864;8.550;2024-02-21T15:26:51;6.87;;;3.47;;
10088;SDS011;51898;49.864;8.550;2024-02-21T15:29:53;10.40;;;3.60;;
10088;SDS011;51898;49.864;8.550;2024-02-21T15:32:56;9.77;;;3.97;;
10088;SDS011;51898;49.864;8.550;2024-02-21T15:36:02;9.77;;;4.00;;
10088;SDS011;51898;49.864;8.550;2024-02-21T15:39:05;9.27;;;3.40;;
10088;SDS011;51898;49.864;8.550;2024-02-21T15:42:07;6.53;;;3.87;;
10088;SDS011;51898;49.864;8.550;2024-02-21T15:45:09;9.57;;;3.97;;
10088;SDS011;51898;49.864;8.550;2024-02-21T15:48:11;9.40;;;4.10;;
10088;SDS011;51898;49.864;8.550;2024-02-21T15:51:14;5.53;;;3.20;;
10088;SDS011;51898;49.864;8.550;2024-02-21T15:54:16;9.27;;;4.00;;
10088;SDS011;51898;49.864;8.550;2024-02-21T15:57:24;11.53;;;4.40;;
10088;SDS011;51898;49.864;8.550;2024-02-21T16:00:25;8.60;;;4.30;;
10088;SDS011;51898;49.864;8.550;2024-02-21T16:03:27;13.07;;;3.97;;
10088;SDS011;51898;49.864;8.550;2024-02-21T16:06:29;9.00;;;2.97;;
10088;SDS011;51898;49.864;8.550;2024-02-21T16:09:33;10.20;;;3.70;;
10088;SDS011;51898;49.864;8.550;2024-02-21T16:12:36;9.30;;;5.30;;
10088;SDS011;51898;49.864;8.550;2024-02-21T16:15:42;9.10;;;3.77;;
10088;SDS011;51898;49.864;8.550;2024-02-21T16:18:44;11.47;;;3.63;;
10088;SDS011;51898;49.864;8.550;2024-02-21T16:21:54;9.60;;;5.33;;
10088;SDS011;51898;49.864;8.550;2024-02-21T16:28:46;7.90;;;3.83;;
10088;SDS011;51898;49.864;8.550;2024-02-21T16:32:14;10.27;;;4.10;;
10088;SDS011;51898;49.864;8.550;2024-02-21T16:35:16;8.37;;;4.27;;
10088;SDS011;51898;49.864;8.550;2024-02-21T16:38:21;6.50;;;3.40;;
10088;SDS011;51898;49.864;8.550;2024-02-21T16:42:06;6.53;;;3.03;;
10088;SDS011;51898;49.864;8.550;2024-02-21T16:45:35;7.50;;;3.17;;
10088;SDS011;51898;49.864;8.550;2024-02-21T16:48:37;8.13;;;3.57;;
10088;SDS011;51898;49.864;8.550;2024-02-21T16:51:39;11.40;;;4.10;;
10088;SDS011;51898;49.864;8.550;2024-02-21T16:54:41;13.73;;;4.20;;
10088;SDS011;51898;49.864;8.550;2024-02-21T16:57:43;9.43;;;2.90;;
10088;SDS011;51898;49.864;8.550;2024-02-21T17:00:44;4.33;;;3.57;;
10088;SDS011;51898;49.864;8.550;2024-02-21T17:03:47;6.70;;;3.53;;
10088;SDS011;51898;49.864;8.550;2024-02-21T17:06:49;7.47;;;2.50;;
10088;SDS011;51898;49.864;8.550;2024-02-21T17:09:52;5.80;;;2.77;;
10088;SDS011;51898;49.864;8.550;2024-02-21T17:12:54;7.87;;;3.30;;
10088;SDS011;51898;49.864;8.550;2024-02-21T17:15:56;7.60;;;4.13;;
10088;SDS011;51898;49.864;8.550;2024-02-21T17:19:02;7.37;;;3.50;;
10088;SDS011;51898;49.864;8.550;2024-02-21T17:22:06;5.53;;;3.53;;
10088;SDS011;51898;49.864;8.550;2024-02-21T17:25:12;6.83;;;3.53;;
10088;SDS011;51898;49.864;8.550;2024-02-21T17:28:15;6.17;;;3.13;;
10088;SDS011;51898;49.864;8.550;2024-02-21T17:31:17;11.17;;;3.90;;
10088;SDS011;51898;49.864;8.550;2024-02-21T17:34:20;4.40;;;3.17;;
10088;SDS011;51898;49.864;8.550;2024-02-21T17:37:25;8.57;;;3.33;;
10088;SDS011;51898;49.864;8.550;2024-02-21T17:40:30;4.90;;;3.30;;
10088;SDS011;51898;49.864;8.550;2024-02-21T17:43:35;7.50;;;4.30;;
10088;SDS011;51898;49.864;8.550;2024-02-21T17:46:41;11.80;;;4.00;;
10088;SDS011;51898;49.864;8.550;2024-02-21T17:49:46;5.40;;;4.13;;
10088;SDS011;51898;49.864;8.550;2024-02-21T17:52:49;4.80;;;3.30;;
10088;SDS011;51898;49.864;8.550;2024-02-21T17:55:51;7.30;;;3.80;;
10088;SDS011;51898;49.864;8.550;2024-02-21T17:58:53;12.63;;;3.97;;
10088;SDS011;51898;49.864;8.550;2024-02-21T18:01:54;8.40;;;3.70;;
10088;SDS011;51898;49.864;8.550;2024-02-21T18:04:56;6.70;;;3.93;;
10088;SDS011;51898;49.864;8.550;2024-02-21T18:07:58;7.67;;;3.80;;
10088;SDS011;51898;49.864;8.550;2024-02-21T18:11:11;10.37;;;3.40;;
10088;SDS011;51898;49.864;8.550;2024-02-21T18:14:13;8.50;;;3.90;;
10088;SDS011;51898;49.864;8.550;2024-02-21T18:17:16;9.70;;;3.80;;
10088;SDS011;51898;49.864;8.550;2024-02-21T18:20:18;8.67;;;3.70;;